Time;durP1;ratioP1;P1;durP2;ratioP2;P2;SDS_P1;SDS_P2;PMS_P1;PMS_P2;Temp;Humidity;BMP_temperature;BMP_pressure;BME280_temperature;BME280_humidity;BME280_pressure;Samples;Min_cycle;Max_cycle;Signal;HPM_P1;HPM_P2
2023/12/05 00:02:00;;;;;;;;;;;1.60;99.90;;;;;;5064388;28;19988;-78
2023/12/05 00:04:27;;;;;;;;;;;1.60;99.90;;;;;;5065466;28;20003;-77
2023/12/05 00:06:54;;;;;;;;;;;1.60;99.90;;;;;;5064718;28;20415;-76
2023/12/05 00:09:21;;;;;;;;;;;1.60;99.90;;;;;;5068626;28;20374;-77
2023/12/05 00:11:48;;;;;;;;;;;1.60;99.90;;;;;;5065230;28;20475;-77
2023/12/05 00:14:14;;;;;;;;;;;1.60;99.90;;;;;;5056222;28;20053;-78
2023/12/05 00:16:41;;;;;;;;;;;1.60;99.90;;;;;;5065175;28;20006;-77
2023/12/05 00:19:07;;;;;;;;;;;1.60;99.90;;;;;;5065189;28;19975;-78
2023/12/05 00:21:34;;;;;;;;;;;1.60;99.90;;;;;;5066170;28;20070;-77
2023/12/05 00:24:01;;;;;;;;;;;1.60;99.90;;;;;;5062153;28;20543;-79
2023/12/05 00:26:29;;;;;;;;;;;1.60;99.90;;;;;;5066355;28;19995;-78
2023/12/05 00:28:55;;;;;;;;;;;1.60;99.90;;;;;;5064375;28;20472;-77
2023/12/05 00:31:22;;;;;;;;;;;1.70;99.90;;;;;;5063089;28;19991;-78
2023/12/05 00:33:48;;;;;;;;;;;1.60;99.90;;;;;;5067420;28;20069;-76
2023/12/05 00:36:15;;;;;;;;;;;1.60;99.90;;;;;;5064472;28;19999;-77
2023/12/05 00:38:42;;;;;;;;;;;1.70;99.90;;;;;;5067514;28;20033;-78
2023/12/05 00:41:09;;;;;;;;;;;1.70;99.90;;;;;;5062113;28;19987;-78
2023/12/05 00:43:36;;;;;;;;;;;1.70;99.90;;;;;;5065708;28;20089;-78
2023/12/05 00:46:03;;;;;;;;;;;1.70;99.90;;;;;;5062757;28;21133;-77
2023/12/05 00:48:30;;;;;;;;;;;1.60;99.90;;;;;;5069125;28;19979;-78
2023/12/05 00:50:56;;;;;;;;;;;1.70;99.90;;;;;;5066931;28;19984;-77
2023/12/05 00:53:23;;;;;;;;;;;1.70;99.90;;;;;;5065159;28;19987;-78
2023/12/05 00:55:49;;;;;;;;;;;1.70;99.90;;;;;;5066246;28;20374;-78
2023/12/05 00:58:16;;;;;;;;;;;1.70;99.90;;;;;;5064836;28;19983;-79
2023/12/05 01:00:44;;;;;;;;;;;1.70;99.90;;;;;;5059425;28;20005;-77
2023/12/05 01:03:11;;;;;;;;;;;1.70;99.90;;;;;;5062816;28;19982;-77
2023/12/05 01:05:37;;;;;;;;;;;1.70;99.90;;;;;;5059643;28;20002;-78
2023/12/05 01:08:04;;;;;;;;;;;1.70;99.90;;;;;;5063738;28;19986;-77
2023/12/05 01:10:30;;;;;;;;;;;1.70;99.90;;;;;;5063914;28;19998;-77
2023/12/05 01:12:57;;;;;;;;;;;1.70;99.90;;;;;;5065785;28;20621;-78
2023/12/05 01:15:23;;;;;;;;;;;1.70;99.90;;;;;;5064385;28;19994;-77
2023/12/05 01:17:51;;;;;;;;;;;1.70;99.90;;;;;;5065021;28;19975;-77
2023/12/05 01:20:18;;;;;;;;;;;1.70;99.90;;;;;;5063227;28;19979;-76
2023/12/05 01:22:44;;;;;;;;;;;1.70;99.90;;;;;;5066310;28;19979;-78
2023/12/05 01:25:11;;;;;;;;;;;1.70;99.90;;;;;;5059148;28;20003;-77
2023/12/05 01:27:38;;;;;;;;;;;1.70;99.90;;;;;;5066114;28;20021;-78
2023/12/05 01:30:05;;;;;;;;;;;1.70;99.90;;;;;;5059569;28;20461;-77
2023/12/05 01:32:31;;;;;;;;;;;1.80;99.90;;;;;;5061895;28;19995;-77
2023/12/05 01:34:59;;;;;;;;;;;1.70;99.90;;;;;;5064928;28;19995;-77
2023/12/05 01:37:26;;;;;;;;;;;1.70;99.90;;;;;;5061168;28;19972;-77
2023/12/05 01:39:52;;;;;;;;;;;1.80;99.90;;;;;;5064692;28;19993;-78
2023/12/05 01:42:19;;;;;;;;;;;1.80;99.90;;;;;;5058562;28;19983;-78
2023/12/05 01:44:45;;;;;;;;;;;1.80;99.90;;;;;;5062644;28;20507;-77
2023/12/05 01:47:12;;;;;;;;;;;1.80;99.90;;;;;;5061108;28;19994;-77
2023/12/05 01:49:41;;;;;;;;;;;1.80;99.90;;;;;;5066043;28;19987;-78
2023/12/05 01:52:09;;;;;;;;;;;1.80;99.90;;;;;;5061810;28;19983;-77
2023/12/05 01:54:37;;;;;;;;;;;1.80;99.90;;;;;;5063943;28;19987;-78
2023/12/05 01:57:04;;;;;;;;;;;1.80;99.90;;;;;;5062830;28;19979;-76
2023/12/05 01:59:30;;;;;;;;;;;1.80;99.90;;;;;;5061542;28;20490;-78
2023/12/05 02:01:57;;;;;;;;;;;1.80;99.90;;;;;;5060630;28;20017;-77
2023/12/05 02:04:24;;;;;;;;;;;1.80;99.90;;;;;;5061813;28;19975;-77
2023/12/05 02:06:50;;;;;;;;;;;1.80;99.90;;;;;;5066745;28;20486;-78
2023/12/05 02:09:19;;;;;;;;;;;1.80;99.90;;;;;;5061254;28;19983;-77
2023/12/05 02:11:46;;;;;;;;;;;1.80;99.90;;;;;;5062715;28;20365;-77
2023/12/05 02:14:13;;;;;;;;;;;1.80;99.90;;;;;;5062786;28;19980;-77
2023/12/05 02:16:41;;;;;;;;;;;1.80;99.90;;;;;;5063162;28;19995;-79
2023/12/05 02:19:19;;;;;;;;;;;1.80;99.90;;;;;;5061217;28;19986;-77
2023/12/05 02:21:47;;;;;;;;;;;1.80;99.90;;;;;;5062322;28;19997;-78
2023/12/05 02:24:25;;;;;;;;;;;1.80;99.90;;;;;;5060309;28;20083;-77
2023/12/05 02:26:53;;;;;;;;;;;1.80;99.90;;;;;;5062816;28;19995;-78
2023/12/05 02:29:21;;;;;;;;;;;1.80;99.90;;;;;;5061547;28;20074;-77
2023/12/05 02:31:48;;;;;;;;;;;1.80;99.90;;;;;;5059431;28;19995;-79
2023/12/05 02:34:14;;;;;;;;;;;1.80;99.90;;;;;;5065159;28;19983;-78
2023/12/05 02:36:46;;;;;;;;;;;1.80;99.90;;;;;;5062658;28;20082;-77
2023/12/05 02:39:17;;;;;;;;;;;1.80;99.90;;;;;;5060597;28;19987;-76
2023/12/05 02:41:46;;;;;;;;;;;1.80;99.90;;;;;;5064198;28;19987;-77
2023/12/05 02:44:13;;;;;;;;;;;1.80;99.90;;;;;;5054878;28;19982;-77
2023/12/05 02:46:41;;;;;;;;;;;1.80;99.90;;;;;;5062639;28;20002;-78
2023/12/05 02:49:08;;;;;;;;;;;1.80;99.90;;;;;;5064145;28;19986;-77
2023/12/05 02:51:35;;;;;;;;;;;1.80;99.90;;;;;;5064045;28;20511;-78
2023/12/05 02:54:05;;;;;;;;;;;1.80;99.90;;;;;;5063997;28;19994;-77
2023/12/05 02:56:32;;;;;;;;;;;1.80;99.90;;;;;;5061147;28;19997;-78
2023/12/05 02:58:59;;;;;;;;;;;1.80;99.90;;;;;;5061163;28;19988;-78
2023/12/05 03:01:25;;;;;;;;;;;1.80;99.90;;;;;;5060563;28;19991;-76
2023/12/05 03:03:53;;;;;;;;;;;1.80;99.90;;;;;;5064954;28;19975;-77
2023/12/05 03:06:20;;;;;;;;;;;1.80;99.90;;;;;;5062375;28;20461;-77
2023/12/05 03:08:46;;;;;;;;;;;1.80;99.90;;;;;;5064387;28;20787;-77
2023/12/05 03:11:13;;;;;;;;;;;1.80;99.90;;;;;;5062973;28;20796;-77
2023/12/05 03:13:40;;;;;;;;;;;1.80;99.90;;;;;;5063052;28;19983;-78
2023/12/05 03:16:07;;;;;;;;;;;1.80;99.90;;;;;;5058045;28;20091;-78
2023/12/05 03:18:34;;;;;;;;;;;1.80;99.90;;;;;;5062819;28;19973;-78
2023/12/05 03:21:02;;;;;;;;;;;1.80;99.90;;;;;;5064176;28;19979;-77
2023/12/05 03:23:28;;;;;;;;;;;1.90;99.90;;;;;;5063811;28;19980;-76
2023/12/05 03:25:55;;;;;;;;;;;1.90;99.90;;;;;;5058522;28;19999;-77
2023/12/05 03:28:21;;;;;;;;;;;1.90;99.90;;;;;;5060968;28;19979;-77
2023/12/05 03:30:48;;;;;;;;;;;1.90;99.90;;;;;;5060480;28;20026;-77
2023/12/05 03:33:15;;;;;;;;;;;1.90;99.90;;;;;;5063244;28;19984;-77
2023/12/05 03:35:41;;;;;;;;;;;1.90;99.90;;;;;;5063914;28;19995;-78
2023/12/05 03:38:09;;;;;;;;;;;1.90;99.90;;;;;;5063314;28;19986;-78
2023/12/05 03:40:36;;;;;;;;;;;2.00;99.90;;;;;;5064495;28;20388;-76
2023/12/05 03:43:02;;;;;;;;;;;2.00;99.90;;;;;;5063852;28;19986;-77
2023/12/05 03:45:29;;;;;;;;;;;2.10;99.90;;;;;;5061079;28;19999;-78
2023/12/05 03:47:55;;;;;;;;;;;2.10;99.90;;;;;;5063565;28;19978;-76
2023/12/05 03:50:22;;;;;;;;;;;2.10;99.90;;;;;;5062172;28;19979;-78
2023/12/05 03:52:48;;;;;;;;;;;2.10;99.90;;;;;;5062531;28;19975;-77
2023/12/05 03:55:16;;;;;;;;;;;2.10;99.90;;;;;;5062421;28;20393;-78
2023/12/05 03:57:43;;;;;;;;;;;2.20;99.90;;;;;;5061477;28;19980;-77
2023/12/05 04:00:10;;;;;;;;;;;2.20;99.90;;;;;;5059524;28;20020;-77
2023/12/05 04:02:36;;;;;;;;;;;2.20;99.90;;;;;;5061844;28;19995;-77
2023/12/05 04:05:03;;;;;;;;;;;2.20;99.90;;;;;;5061427;28;19991;-77
2023/12/05 04:07:30;;;;;;;;;;;2.20;99.90;;;;;;5059423;28;20075;-77
2023/12/05 04:09:56;;;;;;;;;;;2.30;99.90;;;;;;5063173;28;19975;-76
2023/12/05 04:12:25;;;;;;;;;;;2.30;99.90;;;;;;5061802;28;19983;-77
2023/12/05 04:14:51;;;;;;;;;;;2.30;99.90;;;;;;5066005;28;19991;-78
2023/12/05 04:17:18;;;;;;;;;;;2.30;99.90;;;;;;5062198;28;20354;-79
2023/12/05 04:19:44;;;;;;;;;;;2.40;99.90;;;;;;5064345;28;19979;-77
2023/12/05 04:22:11;;;;;;;;;;;2.40;99.90;;;;;;5066410;28;19979;-77
2023/12/05 04:24:37;;;;;;;;;;;2.40;99.90;;;;;;5065502;28;20578;-77
2023/12/05 04:27:04;;;;;;;;;;;2.50;99.90;;;;;;5065465;28;19992;-77
2023/12/05 04:29:32;;;;;;;;;;;2.50;99.90;;;;;;5063352;28;19976;-78
2023/12/05 04:32:01;;;;;;;;;;;2.50;99.90;;;;;;5060230;28;19991;-77
2023/12/05 04:34:28;;;;;;;;;;;2.50;99.90;;;;;;5063438;28;20471;-78
2023/12/05 04:36:54;;;;;;;;;;;2.60;99.90;;;;;;5063252;28;19987;-77
2023/12/05 04:39:21;;;;;;;;;;;2.60;99.90;;;;;;5060423;28;20357;-77
2023/12/05 04:41:47;;;;;;;;;;;2.70;99.90;;;;;;5064397;28;19979;-77
2023/12/05 04:44:15;;;;;;;;;;;2.60;99.90;;;;;;5062519;28;19975;-77
2023/12/05 04:46:43;;;;;;;;;;;2.70;99.90;;;;;;5060885;28;20000;-76
2023/12/05 04:49:09;;;;;;;;;;;2.70;99.90;;;;;;5065496;28;20450;-77
2023/12/05 04:51:36;;;;;;;;;;;2.70;99.90;;;;;;5059491;28;19982;-78
2023/12/05 04:54:03;;;;;;;;;;;2.70;99.90;;;;;;5062614;28;19980;-77
2023/12/05 04:56:29;;;;;;;;;;;2.70;99.90;;;;;;5064084;28;20314;-76
2023/12/05 04:58:56;;;;;;;;;;;2.80;99.90;;;;;;5062375;28;20562;-76
2023/12/05 05:01:22;;;;;;;;;;;2.80;99.90;;;;;;5061859;28;19995;-77
2023/12/05 05:03:50;;;;;;;;;;;2.80;99.90;;;;;;5063416;28;19980;-77
2023/12/05 05:06:17;;;;;;;;;;;2.80;99.90;;;;;;5064672;28;20007;-77
2023/12/05 05:08:43;;;;;;;;;;;2.80;99.90;;;;;;5062986;28;19979;-77
2023/12/05 05:11:10;;;;;;;;;;;2.90;99.90;;;;;;5065440;28;19979;-77
2023/12/05 05:13:36;;;;;;;;;;;2.90;99.90;;;;;;5060603;28;19990;-79
2023/12/05 05:16:03;;;;;;;;;;;2.90;99.90;;;;;;5060872;28;20030;-78
2023/12/05 05:18:30;;;;;;;;;;;2.90;99.90;;;;;;5061725;28;20482;-76
2023/12/05 05:20:58;;;;;;;;;;;2.90;99.90;;;;;;5059723;28;19982;-76
2023/12/05 05:23:24;;;;;;;;;;;2.90;99.90;;;;;;5065721;28;19979;-76
2023/12/05 05:25:51;;;;;;;;;;;2.90;99.90;;;;;;5065524;28;20003;-77
2023/12/05 05:28:17;;;;;;;;;;;2.90;99.90;;;;;;5062708;28;20100;-77
2023/12/05 05:30:44;;;;;;;;;;;3.00;99.90;;;;;;5063282;28;20345;-76
2023/12/05 05:33:10;;;;;;;;;;;3.00;99.90;;;;;;5060654;28;19975;-77
2023/12/05 05:35:37;;;;;;;;;;;3.00;99.90;;;;;;5062749;28;20018;-77
2023/12/05 05:38:05;;;;;;;;;;;3.00;99.90;;;;;;5063349;28;20425;-77
2023/12/05 05:40:31;;;;;;;;;;;3.00;99.90;;;;;;5061030;28;20005;-77
2023/12/05 05:42:58;;;;;;;;;;;3.00;99.90;;;;;;5064758;28;19971;-77
2023/12/05 05:45:24;;;;;;;;;;;3.00;99.90;;;;;;5059316;28;19999;-77
2023/12/05 05:47:51;;;;;;;;;;;3.00;99.90;;;;;;5062688;28;19998;-78
2023/12/05 05:50:18;;;;;;;;;;;3.00;99.90;;;;;;5060592;28;19987;-76
2023/12/05 05:52:44;;;;;;;;;;;3.10;99.90;;;;;;5061969;28;20066;-77
2023/12/05 05:55:12;;;;;;;;;;;3.10;99.90;;;;;;5058122;28;19997;-76
2023/12/05 05:57:39;;;;;;;;;;;3.10;99.90;;;;;;5062547;28;19976;-77
2023/12/05 06:00:06;;;;;;;;;;;3.20;99.90;;;;;;5064684;28;19975;-77
2023/12/05 06:02:34;;;;;;;;;;;3.30;99.90;;;;;;5054814;28;20057;-77
2023/12/05 06:05:02;;;;;;;;;;;3.30;99.90;;;;;;5065487;28;19992;-77
2023/12/05 06:07:28;;;;;;;;;;;3.30;99.90;;;;;;5061552;28;20577;-77
2023/12/05 06:09:55;;;;;;;;;;;3.30;99.90;;;;;;5062470;28;20012;-76
2023/12/05 06:12:23;;;;;;;;;;;3.30;99.90;;;;;;5062116;28;19991;-77
2023/12/05 06:14:49;;;;;;;;;;;3.40;99.90;;;;;;5061926;28;19979;-75
2023/12/05 06:17:16;;;;;;;;;;;3.40;99.90;;;;;;5063236;28;20101;-74
2023/12/05 06:19:43;;;;;;;;;;;3.30;99.90;;;;;;5059252;28;19980;-77
2023/12/05 06:22:09;;;;;;;;;;;3.40;99.90;;;;;;5062013;28;20011;-77
2023/12/05 06:24:36;;;;;;;;;;;3.40;99.90;;;;;;5059638;28;20449;-76
2023/12/05 06:27:04;;;;;;;;;;;3.40;99.90;;;;;;5062774;28;19991;-77
2023/12/05 06:29:32;;;;;;;;;;;3.30;99.90;;;;;;5059186;28;19979;-77
2023/12/05 06:31:58;;;;;;;;;;;3.40;99.90;;;;;;5061941;28;19998;-77
2023/12/05 06:34:25;;;;;;;;;;;3.40;99.90;;;;;;5062295;28;19979;-78
2023/12/05 06:36:51;;;;;;;;;;;3.40;99.90;;;;;;5063438;28;20076;-77
2023/12/05 06:39:18;;;;;;;;;;;3.40;99.90;;;;;;5060155;28;19980;-76
2023/12/05 06:41:44;;;;;;;;;;;3.40;99.90;;;;;;5063046;28;19979;-76
2023/12/05 06:44:12;;;;;;;;;;;3.40;99.90;;;;;;5062254;28;20608;-77
2023/12/05 06:46:40;;;;;;;;;;;3.40;99.90;;;;;;5062187;28;20094;-77
2023/12/05 06:49:06;;;;;;;;;;;3.40;99.90;;;;;;5064104;28;19990;-77
2023/12/05 06:51:33;;;;;;;;;;;3.40;99.90;;;;;;5061511;28;19976;-77
2023/12/05 06:53:59;;;;;;;;;;;3.50;99.90;;;;;;5060516;28;19982;-76
2023/12/05 06:56:26;;;;;;;;;;;3.50;99.90;;;;;;5059103;28;19996;-77
2023/12/05 06:58:52;;;;;;;;;;;3.50;99.90;;;;;;5062334;28;19975;-77
2023/12/05 07:01:19;;;;;;;;;;;3.50;99.90;;;;;;5063723;28;20473;-77
2023/12/05 07:03:47;;;;;;;;;;;3.50;99.90;;;;;;5059636;28;20540;-76
2023/12/05 07:06:13;;;;;;;;;;;3.50;99.90;;;;;;5063236;28;20488;-76
2023/12/05 07:08:40;;;;;;;;;;;3.50;99.90;;;;;;5063435;28;19988;-76
2023/12/05 07:11:07;;;;;;;;;;;3.50;99.90;;;;;;5062895;28;19987;-76
2023/12/05 07:13:33;;;;;;;;;;;3.50;99.90;;;;;;5060712;28;19976;-76
2023/12/05 07:16:00;;;;;;;;;;;3.50;99.90;;;;;;5059611;28;19999;-75
2023/12/05 07:18:26;;;;;;;;;;;3.50;99.90;;;;;;5059417;28;19981;-76
2023/12/05 07:20:54;;;;;;;;;;;3.50;99.90;;;;;;5063552;28;20448;-75
2023/12/05 07:23:21;;;;;;;;;;;3.50;99.90;;;;;;5062913;28;19975;-76
2023/12/05 07:25:49;;;;;;;;;;;3.50;99.90;;;;;;5061597;28;19998;-76
2023/12/05 07:28:15;;;;;;;;;;;3.60;99.90;;;;;;5062209;28;20547;-75
2023/12/05 07:30:42;;;;;;;;;;;3.60;99.90;;;;;;5059012;28;20019;-76
2023/12/05 07:33:08;;;;;;;;;;;3.60;99.90;;;;;;5060344;28;20023;-76
2023/12/05 07:35:35;;;;;;;;;;;3.60;99.90;;;;;;5062104;28;19999;-75
2023/12/05 07:38:03;;;;;;;;;;;3.60;99.90;;;;;;5060750;28;19976;-76
2023/12/05 07:40:29;;;;;;;;;;;3.60;99.90;;;;;;5060995;28;19982;-75
2023/12/05 07:42:56;;;;;;;;;;;3.60;99.90;;;;;;5061252;28;19983;-75
2023/12/05 07:45:22;;;;;;;;;;;3.60;99.90;;;;;;5064300;28;20006;-76
2023/12/05 07:47:49;;;;;;;;;;;3.60;99.90;;;;;;5065187;28;19999;-76
2023/12/05 07:50:15;;;;;;;;;;;3.70;99.90;;;;;;5067578;28;20045;-75
2023/12/05 07:52:42;;;;;;;;;;;3.70;99.90;;;;;;5063780;28;19995;-75
2023/12/05 07:55:10;;;;;;;;;;;3.60;99.90;;;;;;5067609;28;20000;-76
2023/12/05 07:57:37;;;;;;;;;;;3.70;99.90;;;;;;5063534;28;19975;-76
2023/12/05 08:00:05;;;;;;;;;;;3.70;99.90;;;;;;5064313;28;19975;-76
2023/12/05 08:02:31;;;;;;;;;;;3.70;99.90;;;;;;5052529;28;20019;-76
2023/12/05 08:04:58;;;;;;;;;;;3.70;99.90;;;;;;5064995;28;20819;-76
2023/12/05 08:07:24;;;;;;;;;;;3.70;99.90;;;;;;5059507;28;20002;-76
2023/12/05 08:09:51;;;;;;;;;;;3.70;99.90;;;;;;5064575;28;19980;-76
2023/12/05 08:12:19;;;;;;;;;;;3.70;99.90;;;;;;5066284;28;19979;-75
2023/12/05 08:14:45;;;;;;;;;;;3.80;99.90;;;;;;5063438;28;19986;-76
2023/12/05 08:17:13;;;;;;;;;;;3.70;99.90;;;;;;5070377;28;20488;-76
2023/12/05 08:19:40;;;;;;;;;;;3.80;99.90;;;;;;5062585;28;20055;-75
2023/12/05 08:22:06;;;;;;;;;;;3.80;99.90;;;;;;5066943;28;19979;-76
2023/12/05 08:24:33;;;;;;;;;;;3.80;99.90;;;;;;5064451;28;19979;-74
2023/12/05 08:27:00;;;;;;;;;;;3.80;99.90;;;;;;5064603;28;19991;-75
2023/12/05 08:29:27;;;;;;;;;;;3.80;99.90;;;;;;5065223;28;20558;-76
2023/12/05 08:31:54;;;;;;;;;;;3.80;99.90;;;;;;5062820;28;19999;-75
2023/12/05 08:34:20;;;;;;;;;;;3.80;99.90;;;;;;5062472;28;19979;-76
2023/12/05 08:36:47;;;;;;;;;;;3.80;99.90;;;;;;5062102;28;19992;-76
2023/12/05 08:39:13;;;;;;;;;;;3.90;99.90;;;;;;5063589;28;20425;-76
2023/12/05 08:41:40;;;;;;;;;;;3.90;99.90;;;;;;5064551;28;19979;-74
2023/12/05 08:44:07;;;;;;;;;;;3.90;99.90;;;;;;5062784;28;19975;-76
2023/12/05 08:46:35;;;;;;;;;;;3.90;99.90;;;;;;5062196;28;20009;-76
2023/12/05 08:49:01;;;;;;;;;;;3.90;99.90;;;;;;5064734;28;19980;-76
2023/12/05 08:51:28;;;;;;;;;;;4.00;99.90;;;;;;5065155;28;19986;-75
2023/12/05 08:53:54;;;;;;;;;;;4.00;99.90;;;;;;5062230;28;19990;-75
2023/12/05 08:56:21;;;;;;;;;;;4.00;99.90;;;;;;5056249;28;20425;-76
2023/12/05 08:58:47;;;;;;;;;;;4.00;99.90;;;;;;5060760;28;19979;-76
2023/12/05 09:01:14;;;;;;;;;;;4.00;99.90;;;;;;5064606;28;20003;-76
2023/12/05 09:03:42;;;;;;;;;;;4.10;99.90;;;;;;5060722;28;19991;-76
2023/12/05 09:06:09;;;;;;;;;;;4.10;99.90;;;;;;5064884;28;19995;-77
2023/12/05 09:08:36;;;;;;;;;;;4.10;99.90;;;;;;5063369;28;19996;-76
2023/12/05 09:11:03;;;;;;;;;;;4.10;99.90;;;;;;5066504;28;19980;-76
2023/12/05 09:13:29;;;;;;;;;;;4.10;99.90;;;;;;5065982;28;20560;-76
2023/12/05 09:15:56;;;;;;;;;;;4.10;99.90;;;;;;5062224;28;20002;-76
2023/12/05 09:18:22;;;;;;;;;;;4.10;99.90;;;;;;5062693;28;19979;-76
2023/12/05 09:20:50;;;;;;;;;;;4.10;99.90;;;;;;5065958;28;19976;-76
2023/12/05 09:23:17;;;;;;;;;;;4.10;99.90;;;;;;5063693;28;19990;-76
2023/12/05 09:25:44;;;;;;;;;;;4.10;99.90;;;;;;5064047;28;19991;-75
2023/12/05 09:28:11;;;;;;;;;;;4.20;99.90;;;;;;5065514;28;20049;-77
2023/12/05 09:30:38;;;;;;;;;;;4.20;99.90;;;;;;5062808;28;19991;-76
2023/12/05 09:33:04;;;;;;;;;;;4.20;99.90;;;;;;5064018;28;19991;-76
2023/12/05 09:35:31;;;;;;;;;;;4.20;99.90;;;;;;5061306;28;20529;-68
2023/12/05 09:37:59;;;;;;;;;;;4.30;99.90;;;;;;5062406;28;19985;-68
2023/12/05 09:40:26;;;;;;;;;;;4.30;99.90;;;;;;5059478;28;19983;-68
2023/12/05 09:42:53;;;;;;;;;;;4.30;99.90;;;;;;5063576;28;19983;-67
2023/12/05 09:45:20;;;;;;;;;;;4.30;99.90;;;;;;5059906;28;19999;-68
2023/12/05 09:47:47;;;;;;;;;;;4.30;99.90;;;;;;5062217;28;20056;-68
2023/12/05 09:50:14;;;;;;;;;;;4.40;99.90;;;;;;5060237;28;20015;-68
2023/12/05 09:52:41;;;;;;;;;;;4.40;99.90;;;;;;5065635;28;19997;-70
2023/12/05 09:55:09;;;;;;;;;;;4.40;99.90;;;;;;5067172;28;19995;-68
2023/12/05 09:57:37;;;;;;;;;;;4.40;99.90;;;;;;5067061;28;19983;-69
2023/12/05 10:00:04;;;;;;;;;;;4.50;99.90;;;;;;5059530;28;20413;-69
2023/12/05 10:02:31;;;;;;;;;;;4.50;99.90;;;;;;5061812;28;19999;-68
2023/12/05 10:04:59;;;;;;;;;;;4.40;99.90;;;;;;5055820;28;20015;-67
2023/12/05 10:07:26;;;;;;;;;;;4.50;99.90;;;;;;5062077;28;19991;-68
2023/12/05 10:09:53;;;;;;;;;;;4.50;99.90;;;;;;5067479;28;19980;-69
2023/12/05 10:12:21;;;;;;;;;;;4.50;99.90;;;;;;5062860;28;19980;-68
2023/12/05 10:14:48;;;;;;;;;;;4.50;99.90;;;;;;5066254;28;19986;-68
2023/12/05 10:17:15;;;;;;;;;;;4.50;99.90;;;;;;5063723;28;20025;-69
2023/12/05 10:19:41;;;;;;;;;;;4.50;99.90;;;;;;5066524;28;20105;-68
2023/12/05 10:22:08;;;;;;;;;;;4.50;99.90;;;;;;5063608;28;20009;-69
2023/12/05 10:24:42;;;;;;;;;;;4.50;99.90;;;;;;5063581;28;20354;-67
2023/12/05 10:27:08;;;;;;;;;;;4.50;99.90;;;;;;5064499;28;19983;-68
2023/12/05 10:29:39;;;;;;;;;;;4.60;99.90;;;;;;5066538;28;20034;-81
2023/12/05 10:32:06;;;;;;;;;;;4.60;99.90;;;;;;5057928;28;20017;-81
2023/12/05 10:34:45;;;;;;;;;;;4.60;99.90;;;;;;5064811;28;20029;-82
2023/12/05 10:37:11;;;;;;;;;;;4.60;99.90;;;;;;5064920;28;19982;-81
2023/12/05 10:39:38;;;;;;;;;;;4.60;99.90;;;;;;5065288;28;19979;-82
2023/12/05 10:42:05;;;;;;;;;;;4.60;99.90;;;;;;5061940;28;19971;-81
2023/12/05 10:44:39;;;;;;;;;;;4.60;99.90;;;;;;5061414;28;19979;-81
2023/12/05 10:47:05;;;;;;;;;;;4.60;99.90;;;;;;5061133;28;19991;-82
2023/12/05 10:49:33;;;;;;;;;;;4.70;99.90;;;;;;5066556;28;19995;-81
2023/12/05 10:51:59;;;;;;;;;;;4.70;99.90;;;;;;5060109;28;20572;-81
2023/12/05 10:54:26;;;;;;;;;;;4.70;99.90;;;;;;5063899;28;19979;-81
2023/12/05 10:56:55;;;;;;;;;;;4.70;99.90;;;;;;5059080;28;19996;-83
2023/12/05 10:59:22;;;;;;;;;;;4.70;99.90;;;;;;5065061;28;21332;-82
2023/12/05 11:01:50;;;;;;;;;;;4.70;99.90;;;;;;5066022;28;19991;-82
2023/12/05 11:04:17;;;;;;;;;;;4.70;99.90;;;;;;5063254;28;19994;-83
2023/12/05 11:06:43;;;;;;;;;;;4.70;99.90;;;;;;5064550;28;20049;-81
2023/12/05 11:09:10;;;;;;;;;;;4.70;99.90;;;;;;5065747;28;20002;-82
2023/12/05 11:11:40;;;;;;;;;;;4.80;99.90;;;;;;5065575;28;20433;-82
2023/12/05 11:14:08;;;;;;;;;;;4.70;99.90;;;;;;5068418;28;19975;-85
2023/12/05 11:16:36;;;;;;;;;;;4.80;99.90;;;;;;5068045;28;20000;-84
2023/12/05 11:19:11;;;;;;;;;;;4.80;99.90;;;;;;5070140;28;19979;-83
2023/12/05 11:21:45;;;;;;;;;;;4.80;99.90;;;;;;5071934;28;19982;-82
2023/12/05 11:24:26;;;;;;;;;;;4.80;99.90;;;;;;5068254;28;19972;-82
2023/12/05 11:27:10;;;;;;;;;;;4.90;99.90;;;;;;5073425;28;20507;-83
2023/12/05 11:29:45;;;;;;;;;;;4.80;99.90;;;;;;5073805;28;20089;-83
2023/12/05 11:32:14;;;;;;;;;;;4.80;99.90;;;;;;5067670;28;19990;-83
2023/12/05 11:34:54;;;;;;;;;;;4.90;99.90;;;;;;5073530;28;19971;-83
2023/12/05 11:37:27;;;;;;;;;;;4.90;99.90;;;;;;5075193;28;20009;-82
2023/12/05 11:39:54;;;;;;;;;;;4.90;99.90;;;;;;5076150;28;20432;-83
2023/12/05 11:42:21;;;;;;;;;;;4.90;99.90;;;;;;5074104;28;20484;-83
2023/12/05 11:44:48;;;;;;;;;;;4.90;99.90;;;;;;5068928;28;19975;-81
2023/12/05 11:47:17;;;;;;;;;;;5.00;99.90;;;;;;5072108;28;19996;-81
2023/12/05 11:49:53;;;;;;;;;;;5.00;99.90;;;;;;5064871;28;19996;-83
2023/12/05 11:52:20;;;;;;;;;;;5.00;99.90;;;;;;5068502;28;20527;-83
2023/12/05 11:54:48;;;;;;;;;;;5.10;99.90;;;;;;5068097;28;19979;-82
2023/12/05 11:57:15;;;;;;;;;;;5.10;99.90;;;;;;5071652;28;19979;-83
2023/12/05 11:59:42;;;;;;;;;;;5.10;99.90;;;;;;5078843;28;20364;-84
2023/12/05 12:02:12;;;;;;;;;;;5.10;99.90;;;;;;5071095;28;19995;-82
2023/12/05 12:04:38;;;;;;;;;;;5.10;99.90;;;;;;5066247;28;19975;-81
2023/12/05 12:07:07;;;;;;;;;;;5.10;99.90;;;;;;5064473;28;19979;-83
2023/12/05 12:09:37;;;;;;;;;;;5.10;99.90;;;;;;5070557;28;20584;-82
2023/12/05 12:12:04;;;;;;;;;;;5.20;99.90;;;;;;5074087;28;19986;-80
2023/12/05 12:14:30;;;;;;;;;;;5.20;99.90;;;;;;5070656;28;19983;-81
2023/12/05 12:16:59;;;;;;;;;;;5.20;99.90;;;;;;5069525;28;19995;-81
2023/12/05 12:19:26;;;;;;;;;;;5.20;99.90;;;;;;5067160;28;19976;-80
2023/12/05 12:21:52;;;;;;;;;;;5.30;99.90;;;;;;5069167;28;19971;-80
2023/12/05 12:24:20;;;;;;;;;;;5.20;99.90;;;;;;5066235;28;19983;-82
2023/12/05 12:26:54;;;;;;;;;;;5.20;99.90;;;;;;5066649;28;20476;-83
2023/12/05 12:29:21;;;;;;;;;;;5.30;99.90;;;;;;5064958;28;20825;-82
2023/12/05 12:31:48;;;;;;;;;;;5.30;99.90;;;;;;5068059;28;20377;-83
2023/12/05 12:34:21;;;;;;;;;;;5.30;99.90;;;;;;5069107;28;19986;-81
2023/12/05 12:36:49;;;;;;;;;;;5.30;99.90;;;;;;5066863;28;19992;-82
2023/12/05 12:39:16;;;;;;;;;;;5.30;99.90;;;;;;5065939;28;19987;-82
2023/12/05 12:41:44;;;;;;;;;;;5.30;99.90;;;;;;5072605;28;20018;-81
2023/12/05 12:44:10;;;;;;;;;;;5.40;99.90;;;;;;5072433;28;20015;-82
2023/12/05 12:46:37;;;;;;;;;;;5.40;99.90;;;;;;5068508;28;20000;-83
2023/12/05 12:49:05;;;;;;;;;;;5.40;99.90;;;;;;5072910;28;20407;-82
2023/12/05 12:51:33;;;;;;;;;;;5.40;99.90;;;;;;5069746;28;19980;-83
2023/12/05 12:54:01;;;;;;;;;;;5.40;99.90;;;;;;5074149;28;20003;-84
2023/12/05 12:56:29;;;;;;;;;;;5.40;99.90;;;;;;5073886;28;19995;-82
2023/12/05 12:59:00;;;;;;;;;;;5.40;99.90;;;;;;5072067;28;20445;-82
2023/12/05 13:01:26;;;;;;;;;;;5.40;99.90;;;;;;5069930;28;20027;-85
2023/12/05 13:03:54;;;;;;;;;;;5.50;99.90;;;;;;5073542;28;19987;-82
2023/12/05 13:06:21;;;;;;;;;;;5.50;99.90;;;;;;5071632;28;19995;-81
2023/12/05 13:08:47;;;;;;;;;;;5.50;99.90;;;;;;5071654;28;20019;-81
2023/12/05 13:11:14;;;;;;;;;;;5.50;99.90;;;;;;5071106;28;19982;-80
2023/12/05 13:13:41;;;;;;;;;;;5.50;99.90;;;;;;5072311;28;20061;-82
2023/12/05 13:16:09;;;;;;;;;;;5.50;99.90;;;;;;5069419;28;19995;-83
2023/12/05 13:18:43;;;;;;;;;;;5.60;99.90;;;;;;5066721;28;19979;-83
2023/12/05 13:21:10;;;;;;;;;;;5.60;99.90;;;;;;5069960;28;19986;-82
2023/12/05 13:23:36;;;;;;;;;;;5.60;99.90;;;;;;5066781;28;19979;-80
2023/12/05 13:26:03;;;;;;;;;;;5.60;99.90;;;;;;5070744;28;19999;-80
2023/12/05 13:28:30;;;;;;;;;;;5.60;99.90;;;;;;5068125;28;20042;-84
2023/12/05 13:30:56;;;;;;;;;;;5.60;99.90;;;;;;5064790;28;19995;-83
2023/12/05 13:33:24;;;;;;;;;;;5.60;99.90;;;;;;5059918;28;19979;-83
2023/12/05 13:35:52;;;;;;;;;;;5.60;99.90;;;;;;5063548;28;20042;-81
2023/12/05 13:38:18;;;;;;;;;;;5.70;99.90;;;;;;5065036;28;19979;-83
2023/12/05 13:40:45;;;;;;;;;;;5.60;99.90;;;;;;5069344;28;20018;-82
2023/12/05 13:43:12;;;;;;;;;;;5.60;99.90;;;;;;5065527;28;19987;-81
2023/12/05 13:45:38;;;;;;;;;;;5.60;99.90;;;;;;5064636;28;20076;-81
2023/12/05 13:48:06;;;;;;;;;;;5.60;99.90;;;;;;5066537;28;20049;-81
2023/12/05 13:50:34;;;;;;;;;;;5.60;99.90;;;;;;5065428;28;19991;-80
2023/12/05 13:53:00;;;;;;;;;;;5.60;99.90;;;;;;5070083;28;19982;-82
2023/12/05 13:55:27;;;;;;;;;;;5.60;99.90;;;;;;5065653;28;19991;-80
2023/12/05 13:57:53;;;;;;;;;;;5.60;99.90;;;;;;5069976;28;20476;-82
2023/12/05 14:00:20;;;;;;;;;;;5.60;99.90;;;;;;5060656;28;20409;-83
2023/12/05 14:02:47;;;;;;;;;;;5.70;99.90;;;;;;5066160;28;19985;-79
2023/12/05 14:05:13;;;;;;;;;;;5.70;99.90;;;;;;5070619;28;19992;-82
2023/12/05 14:07:41;;;;;;;;;;;5.70;99.90;;;;;;5069686;28;19975;-82
2023/12/05 14:10:08;;;;;;;;;;;5.70;99.90;;;;;;5062761;28;19987;-81
2023/12/05 14:12:35;;;;;;;;;;;5.60;99.90;;;;;;5064928;28;19980;-82
2023/12/05 14:15:01;;;;;;;;;;;5.60;99.90;;;;;;5068078;28;19991;-83
2023/12/05 14:17:28;;;;;;;;;;;5.70;99.90;;;;;;5068355;28;19996;-81
2023/12/05 14:19:58;;;;;;;;;;;5.60;99.90;;;;;;5071522;28;19975;-83
2023/12/05 14:22:25;;;;;;;;;;;5.60;99.90;;;;;;5065265;28;20057;-80
2023/12/05 14:24:53;;;;;;;;;;;5.60;99.90;;;;;;5069679;28;19976;-84
2023/12/05 14:27:19;;;;;;;;;;;5.70;99.90;;;;;;5065273;28;19979;-81
2023/12/05 14:29:46;;;;;;;;;;;5.70;99.90;;;;;;5063909;28;21129;-82
2023/12/05 14:32:13;;;;;;;;;;;5.60;99.90;;;;;;5062220;28;20013;-80